Aberdeen, OH

9:05 PM EDT on July 29, 2014 (GMT -0400)
Butler County Regional (KHAO) Elev 633 ft | 39.36 °N, 84.52 °W | Change Station

Current weather conditions updated 12 minutes ago

Scattered Clouds
Scattered Clouds
63 °F
Feels Like 63 °F
N
0
Wind Variable Wind from North

Tomorrow is forecast to be Warmer than today.

Today
High -- | Low -- °F
--% Chance of Precip.
Yesterday
High -- | Low -- °F
Precip. -- in
6:33 AM 8:48 PM
Waxing Crescent, 8% visible
Pressure 30.05 in
Visibility 10.0 miles
Clouds Few 5500 ft
Scattered Clouds 11000 ft
Dew Point 59 °F
Humidity 87%
Rainfall 0.00 in
Snow Depth Not available.
UV 0 out of 12
Pollen 6.30 out of 12
Air Quality Not available.
Flu Activity Not available.
METAR KHAO 300053Z AUTO 00000KT 10SM FEW055 SCT110 17/15 A3005 RMK AO2 SLP175 T01720150

More Conditions Fewer Conditions

Pressure 30.05 in
Visibility 10.0 miles
Clouds Few 5500 ft
Scattered Clouds 11000 ft
Dew Point 59 °F
Humidity 87%
Rainfall 0.00 in
Snow Depth Not available.
UV 0 out of 12
Pollen 6.30 out of 12
Air Quality Not available.
Flu Activity Not available.
METAR KHAO 300053Z AUTO 00000KT 10SM FEW055 SCT110 17/15 A3005 RMK AO2 SLP175 T01720150

More Conditions Fewer Conditions

10-Day Weather Forecast

Almanac

Astronomy

Jul. 29, 2014 Rise Set
Actual Time 6:33 AM EDT 8:48 PM EDT
Civil Twilight 6:04 AM EDT 9:18 PM EDT
Nautical Twilight 5:27 AM EDT 9:54 PM EDT
Astronomical Twilight 4:47 AM EDT 10:34 PM EDT
Moon 9:07 AM EDT (7/29) 10:03 PM EDT (7/29)
Length of Visible Light 15h 14m
Length of Day
14h 14m
Tomorrow will be 1m 49s shorter.
Waxing Crescent, 8% of the Moon is Illuminated
Today
Waxing Crescent
Aug 3
First Quarter
Aug 10
Full
Aug 17
Last Quarter
Aug 25
New

Today's Extremes

State Highs State Lows

Community

WunderPhotos

Upload Photos

1,738,939 photos uploaded!

Nearby

Snow Depth

Station Depth Elevation
No new snow has been reported.

Earthquake Activity

City Distance Mag. Time & Date
No recent earthquake activity has been reported nearby.
Minimum magnitude displayed is 2.5.

Coastal Water Temperatures

Place Temperature
No Stations Reporting

Nearby Weather Stations

Station Location Temp. Dew Point Humidity Wind Precip. Elev Updated Type
Bon Haven Dr, Maysville, KY 65.1 °F 43 °F 45% NNW  at  0.0 mph 0.00 in / hr 896 ft 9:05 PM EDT Normal
Polecat Pike, Maysville, KY 64.6 °F 55 °F 70% NW  at  0.0 mph - / hr 866 ft 8:54 PM EDT Normal
Edge of Appalachia Preserve, West Union, OH 60.8 °F 58 °F 91% East  at  0.0 mph 0.00 in / hr 663 ft 9:04 PM EDT Rapid Fire
North Adams High School, Seaman, OH 61.6 °F 50 °F 66% SSW  at  0.0 mph 0.00 in / hr 951 ft 9:04 PM EDT Normal
SW Ohio, Sardinia, OH 60.3 °F 57 °F 87% ESE  at  0.0 mph 0.00 in / hr 942 ft 9:00 PM EDT Normal

Show More Stations Show Fewer Stations